PTKK

Details ICAO PTKK (TKK)
Name Chukk Intl
Region Federated States of Micronesia, Palau
Timezone Pacific/Chuuk (UTC+10.0)
Plans Departing 24
Arriving 19
Stats Elevation 11 ft / 3 m (AMSL)
Location 7.461893° 151.843022°
Runways 1
Magnetic Variation 4.036° E
Sunrise 2018-05-26 19:35:54 UTC / 2018-05-27 05:35:54 Local
Sunset 2018-05-27 08:06:26 UTC / 2018-05-27 18:06:26 Local
Advertisement - Login to hide

Runways

ID Width Length Bearing (true) Bearing (mag) Surface Threshold Offset Overrun Length
04 151 ft / 46 m 6,019 ft / 1,835 m 45.81° 41.77° Asphalt 0 ft / 0 m 194 ft / 59 m
22 151 ft / 46 m 6,019 ft / 1,835 m 225.81° 221.77° Asphalt 0 ft / 0 m 194 ft / 59 m

Map

Weather


0- 5 10 15 20 25 30 35+ Temperature / ° C

Clouds and Precipitation
Forecast for 2018-05-26 18:00 UTC. Updated 5 hours ago

Ground ~20,000 ft ~40,000 ft Winds

METAR

PTKK 262150Z VRB05KT 15SM FEW014 SCT120 OVC280 29/28 A2981 RMK SLP098 T02940279

TAF

TAF PTKK 261731Z 2618/2718 05008KT P6SM VCSH SCT014 SCT120 OVC280

Frequencies

Unicom 123.60 MHz CTAF
Warning: Do not use this data for real-world aviation or navigation. No guarantee of current accuracy is given.